Time;durP1;ratioP1;P1;durP2;ratioP2;P2;SDS_P1;SDS_P2;PMS_P1;PMS_P2;Temp;Humidity;BMP_temperature;BMP_pressure;BME280_temperature;BME280_humidity;BME280_pressure;Samples;Min_cycle;Max_cycle;Signal;HPM_P1;HPM_P2
2021/05/15 00:00:52;;;;;;;42.13;25.50;;;;;;;9.57;77.22;98955.72;5118491;28;20055;-47
2021/05/15 00:03:18;;;;;;;32.15;20.00;;;;;;;9.57;77.43;98957.47;5102522;28;20047;-46
2021/05/15 00:05:44;;;;;;;34.03;19.67;;;;;;;9.54;77.18;98958.44;5118342;28;20353;-47
2021/05/15 00:08:11;;;;;;;27.55;16.75;;;;;;;9.54;77.24;98952.34;5119192;28;20047;-47
2021/05/15 00:10:36;;;;;;;22.48;13.43;;;;;;;9.52;77.13;98948.94;5119172;28;20047;-47
2021/05/15 00:13:02;;;;;;;17.08;11.35;;;;;;;9.49;77.74;98954.25;5119115;28;20047;-47
2021/05/15 00:15:28;;;;;;;17.15;10.20;;;;;;;9.47;77.64;98953.47;5119072;28;20043;-46
2021/05/15 00:17:54;;;;;;;13.05;8.77;;;;;;;9.46;77.86;98950.00;5118971;28;20040;-47
2021/05/15 00:20:20;;;;;;;14.23;9.38;;;;;;;9.44;78.00;98950.97;5118484;28;20526;-47
2021/05/15 00:22:46;;;;;;;11.60;8.13;;;;;;;9.39;78.10;98948.50;5118666;28;20051;-47
2021/05/15 00:25:12;;;;;;;11.70;8.10;;;;;;;9.37;77.77;98958.16;5118870;28;20048;-46
2021/05/15 00:27:38;;;;;;;10.15;7.53;;;;;;;9.36;78.40;98954.69;5118819;28;20058;-46
2021/05/15 00:30:08;;;;;;;10.18;7.05;;;;;;;9.35;78.16;98950.34;5117928;28;20039;-47
2021/05/15 00:32:34;;;;;;;12.35;6.88;;;;;;;9.34;78.59;98956.50;5118443;28;20052;-47
2021/05/15 00:34:59;;;;;;;10.32;7.60;;;;;;;9.33;78.25;98961.78;5119009;28;20039;-47
2021/05/15 00:37:25;;;;;;;12.73;8.00;;;;;;;9.32;78.40;98960.06;5118653;27;20052;-47
2021/05/15 00:39:51;;;;;;;61.75;21.83;;;;;;;9.31;77.96;98961.81;5118533;28;20046;-47
2021/05/15 00:42:17;;;;;;;76.85;28.25;;;;;;;9.28;78.29;98967.16;5100736;28;20082;-47
2021/05/15 00:44:45;;;;;;;108.60;40.70;;;;;;;9.28;78.27;98967.16;5118630;27;20063;-47
2021/05/15 00:47:12;;;;;;;70.40;28.95;;;;;;;9.26;78.35;98965.50;5117349;28;20036;-47
2021/05/15 00:49:38;;;;;;;47.88;21.42;;;;;;;9.23;78.02;98962.97;5118081;28;20046;-47
2021/05/15 00:52:04;;;;;;;44.00;20.63;;;;;;;9.23;78.16;98971.69;5117805;28;20066;-47
2021/05/15 00:54:29;;;;;;;41.13;18.67;;;;;;;9.19;78.01;98967.44;5118297;28;20047;-47
2021/05/15 00:56:55;;;;;;;32.67;16.23;;;;;;;9.15;78.14;98963.22;5117124;28;20040;-47
2021/05/15 00:59:21;;;;;;;25.00;13.07;;;;;;;9.12;78.25;98966.78;5117189;28;20055;-47
2021/05/15 01:01:46;;;;;;;22.80;12.57;;;;;;;9.11;78.28;98956.41;5118204;28;20040;-47
2021/05/15 01:04:12;;;;;;;24.42;13.60;;;;;;;8.98;78.06;98949.88;5117161;28;20050;-47
2021/05/15 01:06:38;;;;;;;18.42;11.23;;;;;;;9.02;78.30;98964.53;5117811;27;20050;-47
2021/05/15 01:09:05;;;;;;;26.52;13.23;;;;;;;8.99;78.25;98957.66;5117374;28;20342;-47
2021/05/15 01:11:31;;;;;;;22.60;12.13;;;;;;;8.95;78.30;98961.28;5117681;28;20129;-47
2021/05/15 01:13:59;;;;;;;21.10;10.55;;;;;;;8.93;78.28;98963.06;5117645;28;20043;-47
2021/05/15 01:16:25;;;;;;;18.80;11.82;;;;;;;8.89;78.09;98970.16;5117877;28;20368;-47
2021/05/15 01:18:51;;;;;;;33.53;17.15;;;;;;;8.83;78.28;98966.88;5117966;28;20043;-47
2021/05/15 01:21:17;;;;;;;67.28;28.10;;;;;;;8.80;78.86;98964.34;5117267;28;20070;-47
2021/05/15 01:23:42;;;;;;;44.55;21.40;;;;;;;8.78;78.77;98969.63;5117742;28;20127;-47
2021/05/15 01:26:15;;;;;;;26.58;14.65;;;;;;;8.79;78.33;98967.88;5116570;28;20035;-47
2021/05/15 01:28:40;;;;;;;18.40;10.63;;;;;;;8.71;78.29;98965.50;5117701;28;20047;-47
2021/05/15 01:31:06;;;;;;;16.63;9.45;;;;;;;8.69;78.53;98967.31;5116689;28;20084;-47
2021/05/15 01:33:32;;;;;;;15.48;9.02;;;;;;;8.64;78.56;98967.47;5117563;28;20356;-47
2021/05/15 01:35:58;;;;;;;11.82;7.78;;;;;;;8.61;78.38;98969.28;5117496;28;20052;-47
2021/05/15 01:38:23;;;;;;;12.50;8.68;;;;;;;8.56;78.00;98966.81;5117122;28;20441;-47
2021/05/15 01:40:49;;;;;;;9.10;6.30;;;;;;;8.54;78.43;98976.44;5117120;28;20052;-47
2021/05/15 01:43:19;;;;;;;11.60;7.38;;;;;;;8.51;77.88;98980.91;5117131;28;20498;-47
2021/05/15 01:45:45;;;;;;;11.05;7.40;;;;;;;8.47;78.36;98974.91;5117379;28;20048;-47
2021/05/15 01:48:17;;;;;;;13.57;8.65;;;;;;;8.46;78.26;98973.22;5117073;27;20040;-47
2021/05/15 01:50:54;;;;;;;14.27;7.75;;;;;;;8.40;78.54;98973.41;5117584;28;20051;-47
2021/05/15 01:53:19;;;;;;;15.05;8.25;;;;;;;8.35;79.31;98972.63;5116937;28;20357;-47
2021/05/15 01:55:45;;;;;;;10.63;8.15;;;;;;;8.33;79.46;98974.44;5117186;27;20058;-47
2021/05/15 01:58:11;;;;;;;10.48;8.10;;;;;;;8.30;79.42;98972.78;5116514;28;20405;-47
2021/05/15 02:00:36;;;;;;;13.40;8.48;;;;;;;8.24;79.00;98964.28;5115883;28;20048;-47
2021/05/15 02:03:02;;;;;;;11.75;7.70;;;;;;;8.27;78.69;98972.88;5116110;28;20055;-47
2021/05/15 02:05:28;;;;;;;11.60;8.25;;;;;;;8.24;79.27;98974.72;5116690;28;20043;-47
2021/05/15 02:07:54;;;;;;;11.23;7.57;;;;;;;8.18;79.32;98979.19;5116662;28;20048;-47
2021/05/15 02:10:19;;;;;;;10.15;7.28;;;;;;;8.16;78.93;98973.19;5116980;28;20054;-47
2021/05/15 02:12:45;;;;;;;11.07;7.35;;;;;;;8.12;79.19;98970.69;5117232;28;20062;-47
2021/05/15 02:15:11;;;;;;;9.15;7.13;;;;;;;8.08;79.15;98964.69;5116871;28;20120;-47
2021/05/15 02:17:37;;;;;;;11.07;7.32;;;;;;;8.06;78.64;98976.06;5116779;28;20055;-47
2021/05/15 02:20:03;;;;;;;12.05;8.05;;;;;;;8.02;78.42;98974.44;5116501;28;20055;-47
2021/05/15 02:22:28;;;;;;;9.85;7.13;;;;;;;7.97;78.38;98980.66;5116833;28;20422;-47
2021/05/15 02:24:54;;;;;;;13.38;7.88;;;;;;;7.94;78.67;98980.75;5116481;28;20058;-47
2021/05/15 02:27:20;;;;;;;11.98;7.78;;;;;;;7.90;78.55;98980.88;5116482;28;20043;-47
2021/05/15 02:29:46;;;;;;;11.82;7.57;;;;;;;7.86;78.14;98982.69;5116759;28;20043;-47
2021/05/15 02:32:12;;;;;;;9.85;6.65;;;;;;;7.82;77.95;98983.66;5116686;28;20051;-47
2021/05/15 02:34:37;;;;;;;9.63;7.00;;;;;;;7.75;77.75;98978.69;5116689;28;20444;-47
2021/05/15 02:37:03;;;;;;;10.15;6.95;;;;;;;7.74;77.95;98985.66;5116655;28;20414;-47
2021/05/15 02:39:29;;;;;;;12.43;6.95;;;;;;;7.70;77.87;98984.00;5116579;28;20480;-47
2021/05/15 02:41:55;;;;;;;9.65;7.05;;;;;;;7.69;78.10;98988.34;5117165;28;20048;-47
2021/05/15 02:44:20;;;;;;;15.07;8.63;;;;;;;7.65;77.76;98983.28;5115473;28;20044;-47
2021/05/15 02:46:46;;;;;;;26.15;13.10;;;;;;;7.60;78.15;98985.97;5115421;28;20124;-47
2021/05/15 02:49:12;;;;;;;21.40;11.68;;;;;;;7.58;78.31;98979.97;5116300;28;20044;-47
2021/05/15 02:51:37;;;;;;;20.45;10.40;;;;;;;7.57;78.10;98985.22;5116533;28;20051;-47
2021/05/15 02:54:03;;;;;;;19.67;11.00;;;;;;;7.56;78.35;98984.38;5116513;28;20140;-47
2021/05/15 02:56:29;;;;;;;16.83;10.32;;;;;;;7.55;78.70;98987.88;5116444;28;20048;-47
2021/05/15 02:58:55;;;;;;;21.00;10.60;;;;;;;7.57;78.73;98987.81;5116365;28;20047;-47
2021/05/15 03:01:20;;;;;;;22.05;12.00;;;;;;;7.59;79.24;98999.06;5116399;28;20059;-47
2021/05/15 03:03:46;;;;;;;15.85;8.73;;;;;;;7.58;79.63;99003.44;5116298;28;20051;-47
2021/05/15 03:06:12;;;;;;;15.73;8.43;;;;;;;7.61;79.69;99005.97;5115260;28;20058;-47
2021/05/15 03:08:38;;;;;;;15.23;8.40;;;;;;;7.62;79.68;98996.38;5116387;28;20349;-47
2021/05/15 03:11:03;;;;;;;16.65;10.02;;;;;;;7.63;80.64;99003.31;5115148;28;20058;-47
2021/05/15 03:13:29;;;;;;;20.58;11.70;;;;;;;7.63;80.66;98998.94;5116511;28;20036;-47
2021/05/15 03:15:55;;;;;;;19.17;10.45;;;;;;;7.67;81.27;98992.78;5119404;28;20066;-47
2021/05/15 03:18:21;;;;;;;25.88;13.55;;;;;;;7.72;80.99;98992.63;5119900;28;20073;-47
2021/05/15 03:20:46;;;;;;;19.27;10.60;;;;;;;7.78;80.79;98997.69;5119936;28;20060;-47
2021/05/15 03:23:13;;;;;;;13.32;8.80;;;;;;;7.83;80.95;98997.56;5120035;27;20314;-47
2021/05/15 03:25:38;;;;;;;14.23;8.63;;;;;;;7.88;81.04;99006.97;5119776;28;20453;-47
2021/05/15 03:28:04;;;;;;;14.13;8.55;;;;;;;7.95;81.19;99002.44;5120321;28;20123;-47
2021/05/15 03:30:30;;;;;;;17.20;9.75;;;;;;;8.02;81.16;98995.31;5118987;28;20342;-47
2021/05/15 03:32:55;;;;;;;14.50;8.80;;;;;;;8.07;81.28;98993.44;5118846;28;20035;-47
2021/05/15 03:35:21;;;;;;;12.70;8.40;;;;;;;8.14;81.09;98987.16;5119881;28;20116;-47
2021/05/15 03:37:47;;;;;;;13.63;8.65;;;;;;;8.21;81.36;98996.50;5119509;28;20349;-47
2021/05/15 03:40:13;;;;;;;15.13;9.02;;;;;;;8.29;81.17;98996.31;5119470;28;20047;-47
2021/05/15 03:42:39;;;;;;;62.38;21.52;;;;;;;8.36;81.56;99000.47;5119438;28;20047;-47
2021/05/15 03:45:07;;;;;;;40.42;17.00;;;;;;;8.45;81.90;98999.34;5119703;28;20062;-47
2021/05/15 03:47:32;;;;;;;23.55;12.82;;;;;;;8.52;81.94;98998.28;5118742;28;20050;-47
2021/05/15 03:49:58;;;;;;;12.15;9.02;;;;;;;8.59;82.46;98999.81;5119348;28;20044;-47
2021/05/15 03:52:24;;;;;;;14.57;8.45;;;;;;;8.66;82.30;98999.56;5119556;28;20055;-47
2021/05/15 03:54:50;;;;;;;12.30;8.48;;;;;;;8.76;81.99;98999.31;5119210;28;20047;-47
2021/05/15 03:57:15;;;;;;;14.35;8.70;;;;;;;8.83;81.76;99003.44;5118591;28;20048;-47
2021/05/15 03:59:41;;;;;;;15.32;8.52;;;;;;;8.93;81.51;99002.25;5119016;28;20058;-47
2021/05/15 04:02:07;;;;;;;13.68;8.82;;;;;;;9.04;81.57;99004.53;5118244;28;20043;-47
2021/05/15 04:04:34;;;;;;;13.43;7.75;;;;;;;9.14;81.24;99005.94;5119048;28;20055;-47
2021/05/15 04:07:00;;;;;;;13.23;7.97;;;;;;;9.26;81.19;99007.28;5118173;28;20071;-45
2021/05/15 04:09:26;;;;;;;10.95;7.63;;;;;;;9.42;81.27;98999.81;5119528;28;20426;-44
2021/05/15 04:11:51;;;;;;;11.65;7.47;;;;;;;9.71;81.68;99014.53;5119154;28;20051;-44
2021/05/15 04:17:03;;;;;;;11.05;6.85;;;;;;;10.44;81.51;99011.09;5118800;28;20058;-45
2021/05/15 04:19:29;;;;;;;8.38;6.25;;;;;;;10.91;80.63;99013.66;5118652;28;20051;-45
2021/05/15 04:21:55;;;;;;;8.15;6.65;;;;;;;11.36;79.57;99010.13;5118688;28;20338;-45
2021/05/15 04:24:24;;;;;;;10.13;6.38;;;;;;;11.67;77.87;99010.56;5118605;28;20051;-45
2021/05/15 04:26:53;;;;;;;10.77;8.05;;;;;;;11.86;76.29;99009.81;5118211;28;20062;-45
2021/05/15 04:29:22;;;;;;;10.85;8.02;;;;;;;11.89;75.98;99013.19;5117637;28;20422;-45
2021/05/15 04:31:48;;;;;;;11.50;7.68;;;;;;;11.93;75.32;99003.41;5118432;28;20399;-45
2021/05/15 04:34:14;;;;;;;10.88;7.35;;;;;;;12.02;75.17;99005.59;5118721;28;20047;-44
2021/05/15 04:36:40;;;;;;;9.43;7.05;;;;;;;12.26;74.55;99010.72;5118676;28;20108;-45
2021/05/15 04:39:06;;;;;;;9.93;7.40;;;;;;;12.55;74.14;99012.88;5118591;28;20134;-46
2021/05/15 04:41:32;;;;;;;11.40;7.25;;;;;;;12.80;72.95;99016.97;5117998;28;20059;-46
2021/05/15 04:43:57;;;;;;;10.20;6.88;;;;;;;12.91;72.50;99017.34;5118538;28;20048;-46
2021/05/15 04:46:23;;;;;;;9.13;7.10;;;;;;;13.12;72.02;99017.25;5118243;28;20035;-45
2021/05/15 04:48:49;;;;;;;9.98;6.85;;;;;;;13.43;71.43;99017.50;5118193;28;20127;-46
2021/05/15 04:51:14;;;;;;;8.48;7.25;;;;;;;13.87;70.43;99017.03;5117285;28;20050;-46
2021/05/15 04:53:40;;;;;;;10.10;7.20;;;;;;;14.38;69.40;99015.28;5118067;28;20047;-46
2021/05/15 04:56:08;;;;;;;9.07;6.85;;;;;;;14.90;68.12;99028.31;5118017;28;20058;-46
2021/05/15 04:58:34;;;;;;;9.38;6.88;;;;;;;15.35;67.16;99024.03;5117537;28;20077;-46
2021/05/15 05:01:00;;;;;;;8.88;7.40;;;;;;;15.82;65.79;99024.88;5117349;28;20104;-46
2021/05/15 05:03:25;;;;;;;9.68;6.97;;;;;;;16.24;64.17;99010.06;5117851;28;20057;-46
2021/05/15 05:05:51;;;;;;;10.88;7.50;;;;;;;16.53;62.20;99017.03;5117839;28;20047;-46
2021/05/15 05:08:17;;;;;;;8.98;7.53;;;;;;;16.78;61.18;99019.03;5118027;28;20047;-46
2021/05/15 05:10:43;;;;;;;8.55;7.05;;;;;;;17.25;61.23;99028.38;5116882;28;20032;-46
2021/05/15 05:13:09;;;;;;;10.50;7.38;;;;;;;17.65;60.37;99033.72;5117632;28;20044;-46
2021/05/15 05:15:34;;;;;;;11.20;7.53;;;;;;;17.93;58.76;99039.84;5117918;28;20043;-46
2021/05/15 05:18:00;;;;;;;25.13;13.90;;;;;;;18.20;57.60;99034.50;5118870;28;20056;-46
2021/05/15 05:20:26;;;;;;;15.10;9.85;;;;;;;18.53;57.32;99031.28;5117511;28;20058;-46
2021/05/15 05:22:52;;;;;;;23.08;12.57;;;;;;;18.95;55.71;99031.03;5116921;28;20039;-46
2021/05/15 05:25:21;;;;;;;18.33;11.57;;;;;;;19.34;55.17;99040.59;5117585;28;20496;-46
2021/05/15 05:27:47;;;;;;;9.68;7.65;;;;;;;19.49;54.12;99039.44;5118254;28;20051;-46
2021/05/15 05:30:14;;;;;;;18.38;11.85;;;;;;;19.90;52.09;99048.81;5117685;28;20043;-46
2021/05/15 05:32:40;;;;;;;22.77;14.25;;;;;;;20.14;52.41;99034.63;5116466;28;20062;-46
2021/05/15 05:35:06;;;;;;;15.50;8.75;;;;;;;20.42;51.59;99042.16;5099731;28;20051;-46
2021/05/15 05:37:32;;;;;;;8.13;6.00;;;;;;;20.64;51.62;99035.22;5116043;28;20048;-46
2021/05/15 05:39:58;;;;;;;8.32;6.53;;;;;;;20.76;50.24;99044.88;5117117;28;20105;-46
2021/05/15 05:42:24;;;;;;;9.10;7.30;;;;;;;21.04;49.48;99050.66;5117713;28;20051;-46
2021/05/15 05:44:49;;;;;;;9.50;6.90;;;;;;;20.88;47.99;99040.41;5117069;28;20058;-46
2021/05/15 05:47:15;;;;;;;7.15;5.60;;;;;;;21.39;49.17;99046.03;5117344;28;20047;-46
2021/05/15 05:49:41;;;;;;;8.88;6.13;;;;;;;21.77;47.83;99050.00;5116725;28;20084;-46
2021/05/15 05:52:06;;;;;;;7.82;6.25;;;;;;;21.75;47.48;99038.63;5117244;28;20078;-46
2021/05/15 05:54:32;;;;;;;6.65;5.40;;;;;;;22.30;47.20;99050.00;5117182;28;20390;-47
2021/05/15 05:56:58;;;;;;;11.57;7.22;;;;;;;22.66;45.88;99042.47;5117130;28;20322;-47
2021/05/15 05:59:23;;;;;;;9.13;7.32;;;;;;;22.90;45.97;99039.47;5116845;28;20047;-46
2021/05/15 06:01:49;;;;;;;8.20;6.38;;;;;;;23.14;44.84;99044.50;5116770;28;20334;-47
2021/05/15 06:04:15;;;;;;;8.10;6.10;;;;;;;23.34;44.84;99042.72;5115182;28;20048;-47
2021/05/15 06:06:41;;;;;;;16.38;11.77;;;;;;;23.49;44.42;99038.63;5114743;28;20062;-47
2021/05/15 06:09:06;;;;;;;14.05;11.30;;;;;;;23.77;44.29;99044.19;5115219;28;20073;-47
2021/05/15 06:11:32;;;;;;;8.35;6.35;;;;;;;23.87;43.24;99044.19;5116968;28;20055;-47
2021/05/15 06:13:58;;;;;;;14.02;8.80;;;;;;;24.07;43.11;99045.00;5116008;28;20053;-47
2021/05/15 06:16:24;;;;;;;12.75;10.02;;;;;;;24.24;42.66;99055.84;5114053;28;20183;-47
2021/05/15 06:18:49;;;;;;;9.10;6.70;;;;;;;24.23;41.21;99056.78;5114504;28;20437;-47
2021/05/15 06:21:15;;;;;;;7.47;5.97;;;;;;;23.75;41.70;99054.16;5114488;28;20058;-47
2021/05/15 06:23:41;;;;;;;7.65;5.97;;;;;;;24.03;41.76;99055.16;5114551;28;20059;-47
2021/05/15 06:26:10;;;;;;;7.85;6.57;;;;;;;24.25;41.76;99048.66;5113687;28;20047;-47
2021/05/15 06:28:36;;;;;;;8.38;5.00;;;;;;;24.10;41.07;99053.59;5114466;28;20039;-47
2021/05/15 06:31:06;;;;;;;5.55;4.38;;;;;;;24.58;40.26;99046.47;5116620;28;20453;-47
2021/05/15 06:33:32;;;;;;;10.20;7.25;;;;;;;24.75;40.42;99044.84;5115838;28;20077;-47
2021/05/15 06:35:58;;;;;;;8.18;6.15;;;;;;;24.81;39.83;99038.91;5098574;28;20044;-47
2021/05/15 06:38:24;;;;;;;5.28;3.40;;;;;;;24.43;38.52;99056.78;5116547;28;20043;-47
2021/05/15 06:40:49;;;;;;;7.47;4.43;;;;;;;24.32;39.64;99051.59;5116610;28;20055;-47
2021/05/15 06:43:15;;;;;;;6.80;3.53;;;;;;;24.93;39.17;99051.13;5115700;28;20052;-47
2021/05/15 06:45:41;;;;;;;6.90;3.60;;;;;;;24.45;38.68;99049.47;5116282;28;20136;-47
2021/05/15 06:48:07;;;;;;;6.43;4.70;;;;;;;25.12;38.87;99055.56;5098744;28;20052;-48
2021/05/15 06:50:32;;;;;;;11.27;8.35;;;;;;;25.51;38.68;99053.50;5119296;28;20499;-47
2021/05/15 06:52:58;;;;;;;4.82;4.30;;;;;;;25.67;37.72;99062.69;5120483;28;20450;-47
2021/05/15 06:55:26;;;;;;;4.38;3.72;;;;;;;25.74;38.44;99056.56;5120338;28;20071;-47
2021/05/15 06:57:52;;;;;;;5.10;4.47;;;;;;;25.73;38.69;99048.66;5120395;28;20099;-47
2021/05/15 07:00:19;;;;;;;3.67;2.95;;;;;;;25.89;38.43;99056.91;5119365;28;20044;-47
2021/05/15 07:02:44;;;;;;;6.78;4.90;;;;;;;25.95;37.59;99052.75;5120535;28;20048;-47
2021/05/15 07:05:10;;;;;;;17.88;10.35;;;;;;;25.72;37.95;99053.19;5120152;28;20078;-47
2021/05/15 07:07:36;;;;;;;9.98;5.93;;;;;;;26.04;37.01;99044.63;5120966;27;20047;-47
2021/05/15 07:10:02;;;;;;;7.90;5.38;;;;;;;26.11;36.94;99047.53;5120350;28;20058;-47
2021/05/15 07:12:28;;;;;;;14.02;9.18;;;;;;;25.90;36.36;99057.72;5120084;28;20051;-47
2021/05/15 07:14:54;;;;;;;8.82;5.75;;;;;;;26.02;37.43;99049.28;5119165;28;20402;-47
2021/05/15 07:17:26;;;;;;;11.38;7.53;;;;;;;26.35;36.53;99039.63;5120277;28;20052;-47
2021/05/15 07:19:52;;;;;;;8.27;4.70;;;;;;;26.70;36.63;99048.59;5119135;28;20078;-47
2021/05/15 07:22:22;;;;;;;6.47;5.20;;;;;;;26.83;35.18;99061.59;5120690;28;20047;-47
2021/05/15 07:24:49;;;;;;;8.10;5.13;;;;;;;26.25;35.85;99054.16;5118951;28;20051;-47
2021/05/15 07:27:16;;;;;;;6.38;4.82;;;;;;;26.57;36.15;99061.63;5120062;28;20043;-47
2021/05/15 07:29:42;;;;;;;6.07;5.00;;;;;;;26.74;35.62;99057.19;5119992;28;20048;-47
2021/05/15 07:32:08;;;;;;;5.57;4.72;;;;;;;26.38;35.49;99059.94;5119984;28;20051;-47
2021/05/15 07:34:33;;;;;;;7.15;5.00;;;;;;;26.30;35.55;99066.13;5119928;28;20498;-47
2021/05/15 07:36:59;;;;;;;6.50;4.88;;;;;;;25.94;35.91;99048.41;5119909;28;20395;-47
2021/05/15 07:39:25;;;;;;;7.10;5.80;;;;;;;26.09;35.76;99053.03;5119758;28;20463;-47
2021/05/15 07:41:51;;;;;;;10.75;6.38;;;;;;;26.17;35.78;99051.44;5119813;28;20353;-47
2021/05/15 07:44:18;;;;;;;5.82;5.15;;;;;;;26.10;35.68;99051.22;5119778;28;20056;-47
2021/05/15 07:46:43;;;;;;;6.68;5.32;;;;;;;26.23;36.56;99050.81;5119715;28;20039;-47
2021/05/15 07:49:09;;;;;;;7.00;4.05;;;;;;;26.58;35.97;99052.56;5118780;28;20101;-47
2021/05/15 07:51:35;;;;;;;8.77;4.03;;;;;;;26.86;35.80;99042.47;5119571;28;20048;-47
2021/05/15 07:54:01;;;;;;;7.47;5.22;;;;;;;27.03;34.56;99036.16;5119284;28;20048;-47
2021/05/15 07:56:27;;;;;;;6.65;4.97;;;;;;;27.14;34.82;99047.69;5118402;28;20039;-47
2021/05/15 07:58:53;;;;;;;6.38;5.38;;;;;;;26.24;35.16;99039.06;5119129;28;20499;-47
2021/05/15 08:01:19;;;;;;;7.35;5.10;;;;;;;26.60;34.95;99047.88;5118102;28;20043;-47
2021/05/15 08:03:44;;;;;;;10.05;6.85;;;;;;;26.01;34.65;99050.31;5119377;28;20048;-47
2021/05/15 08:06:10;;;;;;;6.93;5.38;;;;;;;26.47;35.57;99048.28;5118454;28;20460;-47
2021/05/15 08:08:36;;;;;;;6.07;4.43;;;;;;;26.88;34.45;99045.03;5119262;28;20100;-47
2021/05/15 08:11:03;;;;;;;5.45;4.57;;;;;;;26.82;33.79;99034.91;5118895;28;20435;-53
2021/05/15 08:13:29;;;;;;;6.25;4.72;;;;;;;26.93;32.85;99045.34;5118790;28;20460;-52
2021/05/15 08:15:54;;;;;;;6.82;3.50;;;;;;;26.85;33.76;99043.50;5119136;28;20047;-52
2021/05/15 08:18:20;;;;;;;5.50;4.82;;;;;;;26.68;33.11;99050.63;5118782;28;20422;-53
2021/05/15 08:20:46;;;;;;;7.30;4.50;;;;;;;26.64;32.82;99043.03;5117884;28;20350;-47
2021/05/15 08:23:12;;;;;;;4.95;3.67;;;;;;;26.56;32.83;99046.53;5101132;28;20067;-48
2021/05/15 08:25:38;;;;;;;4.07;3.78;;;;;;;26.27;32.93;99053.00;5117824;28;20130;-48
2021/05/15 08:28:09;;;;;;;13.10;7.20;;;;;;;25.78;33.63;99057.94;5118645;28;20063;-47
2021/05/15 08:30:35;;;;;;;9.13;4.97;;;;;;;25.88;34.43;99063.25;5118110;28;20048;-48
2021/05/15 08:33:00;;;;;;;6.93;5.68;;;;;;;25.95;34.81;99058.97;5118963;28;20454;-48
2021/05/15 08:35:26;;;;;;;7.22;5.38;;;;;;;26.02;35.39;99053.81;5118383;28;20401;-48
2021/05/15 08:37:52;;;;;;;6.85;4.18;;;;;;;26.20;35.45;99057.31;5118377;28;20043;-48
2021/05/15 08:40:19;;;;;;;7.00;3.70;;;;;;;26.26;34.83;99062.06;5118342;28;20345;-48
2021/05/15 08:42:46;;;;;;;14.10;8.95;;;;;;;26.09;34.51;99063.75;5117749;28;20044;-48
2021/05/15 08:45:13;;;;;;;6.38;4.60;;;;;;;26.11;34.38;99063.63;5118626;28;20039;-48
2021/05/15 08:47:40;;;;;;;7.50;4.75;;;;;;;26.07;33.85;99052.38;5118392;28;20058;-48
2021/05/15 08:50:14;;;;;;;9.55;5.30;;;;;;;25.81;34.66;99063.03;5118236;28;20043;-48
2021/05/15 08:52:42;;;;;;;6.55;4.50;;;;;;;25.06;35.10;99064.19;5117371;28;20436;-48
2021/05/15 08:55:09;;;;;;;4.75;3.70;;;;;;;24.64;35.81;99060.13;5117379;28;20058;-48
2021/05/15 08:57:35;;;;;;;7.18;4.90;;;;;;;24.59;36.55;99066.91;5117994;28;20388;-48
2021/05/15 09:00:26;;;;;;;6.25;3.72;;;;;;;24.89;36.10;99057.75;5116973;28;20048;-48
2021/05/15 09:02:56;;;;;;;11.90;7.20;;;;;;;24.77;36.21;99059.78;5115073;28;20446;-48
2021/05/15 09:05:22;;;;;;;9.02;4.90;;;;;;;24.97;36.57;99067.75;5115937;27;20048;-48
2021/05/15 09:07:54;;;;;;;5.80;4.22;;;;;;;25.16;36.54;99068.53;5116094;28;20115;-48
2021/05/15 09:10:21;;;;;;;6.88;4.60;;;;;;;25.26;36.28;99068.47;5115791;28;20044;-54
2021/05/15 09:12:47;;;;;;;5.97;3.10;;;;;;;25.34;36.59;99067.72;5115745;28;20040;-54
2021/05/15 09:15:14;;;;;;;7.22;4.30;;;;;;;25.41;35.30;99074.16;5115979;28;20058;-54
2021/05/15 09:17:49;;;;;;;4.13;3.58;;;;;;;25.37;35.25;99062.88;5117625;28;20065;-54
2021/05/15 09:20:27;;;;;;;4.63;3.30;;;;;;;25.23;35.10;99062.56;5116662;28;20051;-54
2021/05/15 09:22:52;;;;;;;6.68;4.68;;;;;;;24.81;35.70;99066.53;5117539;28;20044;-54
2021/05/15 09:25:18;;;;;;;3.58;2.97;;;;;;;25.01;36.09;99061.09;5117786;28;20052;-53
2021/05/15 09:27:44;;;;;;;6.15;3.72;;;;;;;25.32;34.79;99064.34;5118016;28;20413;-54
2021/05/15 09:30:12;;;;;;;3.88;3.30;;;;;;;25.48;34.83;99064.53;5117869;28;20044;-54
2021/05/15 09:32:38;;;;;;;6.45;4.43;;;;;;;25.79;33.87;99066.84;5117589;28;20122;-54
2021/05/15 09:35:06;;;;;;;5.45;4.03;;;;;;;25.77;34.84;99047.34;5117311;28;20421;-54
2021/05/15 09:37:40;;;;;;;6.07;4.80;;;;;;;25.90;33.32;99061.25;5117254;28;20043;-54
2021/05/15 09:40:09;;;;;;;6.85;3.58;;;;;;;25.80;34.37;99057.78;5099662;28;20093;-54
2021/05/15 09:42:46;;;;;;;5.50;4.57;;;;;;;25.88;32.89;99061.41;5116450;28;20048;-54
2021/05/15 09:45:17;;;;;;;5.40;4.25;;;;;;;25.87;33.79;99067.78;5116544;28;20345;-54
2021/05/15 09:47:59;;;;;;;4.85;3.40;;;;;;;25.87;34.09;99065.09;5099540;28;20039;-53
2021/05/15 09:50:27;;;;;;;5.82;4.00;;;;;;;26.01;33.72;99068.25;5117383;28;20054;-54
2021/05/15 09:53:08;;;;;;;6.25;5.15;;;;;;;26.15;33.54;99058.78;5117574;28;20048;-54
2021/05/15 09:55:34;;;;;;;5.00;4.35;;;;;;;26.06;33.84;99056.06;5116119;28;20365;-54
2021/05/15 09:58:03;;;;;;;4.45;3.47;;;;;;;25.92;32.90;99063.78;5117220;28;20075;-54
2021/05/15 10:00:28;;;;;;;6.75;4.40;;;;;;;25.73;32.99;99067.44;5116906;28;20057;-54
2021/05/15 10:02:54;;;;;;;4.75;4.15;;;;;;;25.24;33.91;99065.09;5099478;28;20409;-54
2021/05/15 10:05:20;;;;;;;5.45;3.60;;;;;;;25.24;34.53;99059.72;5114128;28;20056;-54
2021/05/15 10:07:46;;;;;;;3.80;3.50;;;;;;;25.37;35.19;99064.72;5107901;28;20416;-54
2021/05/15 10:10:12;;;;;;;6.00;3.22;;;;;;;25.49;34.26;99051.97;5094267;28;20127;-54
2021/05/15 10:12:38;;;;;;;3.17;2.85;;;;;;;25.50;34.13;99049.13;5094354;28;20063;-48
2021/05/15 10:15:04;;;;;;;3.80;3.13;;;;;;;25.27;33.12;99048.72;5095229;28;20051;-48
2021/05/15 10:17:30;;;;;;;3.65;2.45;;;;;;;25.23;34.16;99038.44;5094282;28;20047;-48
2021/05/15 10:19:56;;;;;;;2.60;2.40;;;;;;;25.34;33.90;99046.25;5094636;28;20048;-48
2021/05/15 10:22:22;;;;;;;3.40;2.17;;;;;;;25.39;33.68;99041.31;5094018;28;20052;-48
2021/05/15 10:24:48;;;;;;;1.65;1.55;;;;;;;25.47;33.51;99038.69;5095544;28;20135;-48
2021/05/15 10:27:15;;;;;;;1.77;1.65;;;;;;;25.52;32.27;99032.91;5095237;28;20048;-48
2021/05/15 10:29:41;;;;;;;3.28;2.17;;;;;;;25.54;32.69;99039.78;5078754;28;20039;-48
2021/05/15 10:32:22;;;;;;;4.50;2.72;;;;;;;25.56;31.94;99037.78;5095911;28;20400;-48
2021/05/15 10:34:56;;;;;;;4.40;2.78;;;;;;;25.56;32.42;99035.13;5095555;28;20339;-48
2021/05/15 10:37:22;;;;;;;5.75;3.55;;;;;;;25.64;32.30;99035.19;5096269;28;20048;-48
2021/05/15 10:39:48;;;;;;;3.58;1.58;;;;;;;25.89;31.94;99030.06;5095106;28;20067;-48
2021/05/15 10:42:28;;;;;;;3.33;1.80;;;;;;;25.97;32.12;99029.31;5095640;28;20051;-48
2021/05/15 10:44:53;;;;;;;4.95;2.22;;;;;;;26.19;31.26;99012.69;5095369;28;20144;-48
2021/05/15 10:47:21;;;;;;;4.47;2.97;;;;;;;26.25;31.54;99020.09;5095925;28;20044;-48
2021/05/15 10:49:49;;;;;;;2.25;1.90;;;;;;;26.26;31.41;99021.81;5096189;28;20044;-48
2021/05/15 10:52:16;;;;;;;2.72;1.70;;;;;;;26.35;30.83;99017.31;5095335;28;20405;-48
2021/05/15 10:54:43;;;;;;;5.68;1.30;;;;;;;26.52;29.88;99012.94;5095866;28;20071;-48
2021/05/15 10:57:20;;;;;;;6.30;1.98;;;;;;;26.55;28.83;99012.59;5096134;28;20137;-48
2021/05/15 10:59:58;;;;;;;2.78;1.27;;;;;;;26.47;29.37;99013.38;5096114;28;20044;-48
2021/05/15 11:02:33;;;;;;;2.30;1.02;;;;;;;26.47;28.44;99015.22;5096116;28;20063;-48
2021/05/15 11:05:01;;;;;;;1.38;1.00;;;;;;;26.37;28.84;98995.72;5095961;28;20048;-48
2021/05/15 11:07:35;;;;;;;2.60;1.27;;;;;;;26.37;29.52;99001.91;5095041;28;20126;-48
2021/05/15 11:10:15;;;;;;;3.60;1.55;;;;;;;26.27;30.31;98993.97;5095525;28;20442;-48
2021/05/15 11:12:51;;;;;;;2.55;1.30;;;;;;;26.29;31.05;98988.44;5095373;28;20040;-48
2021/05/15 11:15:22;;;;;;;1.63;1.10;;;;;;;26.44;30.71;98991.38;5094976;28;20055;-48
2021/05/15 11:18:00;;;;;;;5.70;1.30;;;;;;;26.26;29.98;98981.56;5095846;28;20066;-48
2021/05/15 11:20:26;;;;;;;3.08;1.48;;;;;;;25.88;30.37;98978.28;5095502;28;20393;-48
2021/05/15 11:22:53;;;;;;;1.10;0.82;;;;;;;26.24;30.74;98974.66;5095870;28;20113;-48
2021/05/15 11:25:19;;;;;;;4.75;1.25;;;;;;;26.46;30.20;98971.44;5095830;28;20048;-48
2021/05/15 11:27:49;;;;;;;1.30;0.77;;;;;;;26.52;29.32;98965.47;5095640;28;20381;-48
2021/05/15 11:30:22;;;;;;;1.60;0.95;;;;;;;26.58;29.23;98958.59;5095117;28;20045;-48
2021/05/15 11:33:06;;;;;;;1.30;1.00;;;;;;;26.75;28.56;98962.19;5095849;28;20059;-48